createdAt,value
2018-04-17T00:02:18.010Z,11.78
2018-04-17T00:07:16.771Z,11.62
2018-04-17T00:12:11.751Z,11.60
2018-04-17T00:17:11.931Z,11.51
2018-04-17T00:22:08.172Z,11.65
2018-04-17T00:27:07.631Z,11.48
2018-04-17T00:32:02.566Z,11.51
2018-04-17T00:36:59.572Z,11.48
2018-04-17T00:41:56.455Z,11.37
2018-04-17T00:46:53.502Z,11.25
2018-04-17T00:51:49.868Z,11.25
2018-04-17T00:56:45.138Z,11.29
2018-04-17T01:01:41.163Z,11.11
2018-04-17T01:06:41.782Z,11.26
2018-04-17T01:11:37.870Z,11.33
2018-04-17T01:16:37.443Z,11.02
2018-04-17T01:21:32.632Z,10.96
2018-04-17T01:26:28.599Z,10.78
2018-04-17T01:31:24.098Z,10.76
2018-04-17T01:36:20.905Z,10.84
2018-04-17T01:41:22.184Z,10.78
2018-04-17T01:46:16.766Z,10.78
2018-04-17T01:51:16.389Z,10.64
2018-04-17T01:56:12.416Z,10.56
2018-04-17T02:01:11.749Z,10.63
2018-04-17T02:06:10.211Z,10.54
2018-04-17T02:11:06.474Z,10.44
2018-04-17T02:16:01.910Z,10.51
2018-04-17T02:20:57.563Z,10.41
2018-04-17T02:25:57.154Z,10.46
2018-04-17T02:30:53.623Z,10.60
2018-04-17T02:35:49.338Z,10.63
2018-04-17T02:40:49.058Z,10.60
2018-04-17T02:45:45.179Z,10.53
2018-04-17T02:50:46.453Z,10.41
2018-04-17T02:55:45.005Z,10.38
2018-04-17T03:00:39.860Z,10.44
2018-04-17T03:05:39.583Z,10.31
2018-04-17T03:10:35.792Z,10.46
2018-04-17T03:15:36.351Z,10.40
2018-04-17T03:20:35.976Z,10.26
2018-04-17T03:25:31.221Z,10.28
2018-04-17T03:30:29.127Z,10.41
2018-04-17T03:35:28.245Z,10.23
2018-04-17T03:40:23.015Z,10.30
2018-04-17T03:45:18.976Z,10.10
2018-04-17T03:50:18.836Z,10.05
2018-04-17T03:55:17.960Z," 9.69"
2018-04-17T04:00:13.795Z," 9.56"
2018-04-17T04:05:09.803Z," 9.44"
2018-04-17T04:10:07.072Z," 9.46"
2018-04-17T04:15:07.594Z," 9.69"
2018-04-17T04:20:06.752Z," 9.68"
2018-04-17T04:25:02.767Z," 9.66"
2018-04-17T04:29:59.401Z," 9.51"
2018-04-17T04:34:54.959Z," 9.47"
2018-04-17T04:39:54.468Z," 9.34"
2018-04-17T04:44:49.453Z," 9.73"
2018-04-17T04:49:46.202Z,10.53
2018-04-17T04:54:43.300Z,10.82
2018-04-17T04:59:40.417Z,10.90
2018-04-17T05:04:41.147Z,11.00
2018-04-17T05:09:37.193Z,10.90
2018-04-17T05:14:32.547Z,10.90
2018-04-17T05:19:29.667Z,10.99
2018-04-17T05:24:26.453Z,11.04
2018-04-17T05:29:22.177Z,11.12
2018-04-17T05:34:18.115Z,11.29
2018-04-17T05:39:14.610Z,11.43
2018-04-17T05:44:10.528Z,11.45
2018-04-17T05:49:06.380Z,11.40
2018-04-17T05:54:02.546Z,11.37
2018-04-17T05:58:58.670Z,11.48
2018-04-17T06:03:55.131Z,11.62
2018-04-17T06:08:51.945Z,11.88
2018-04-17T06:13:47.897Z,12.13
2018-04-17T06:18:44.400Z,12.37
2018-04-17T06:23:41.394Z,12.85
2018-04-17T06:28:37.975Z,12.85
2018-04-17T06:33:33.591Z,12.85
2018-04-17T06:38:29.512Z,12.94
2018-04-17T06:43:30.267Z,12.95
2018-04-17T06:48:26.107Z,12.80
2018-04-17T06:53:21.977Z,12.97
2018-04-17T06:58:18.097Z,13.18
2018-04-17T07:03:18.905Z,13.39
2018-04-17T07:08:17.300Z,13.53
2018-04-17T07:13:13.361Z,13.78
2018-04-17T07:18:09.110Z,13.78
2018-04-17T07:23:06.444Z,14.18
2018-04-17T07:28:02.625Z,14.50
2018-04-17T07:32:59.047Z,15.03
2018-04-17T07:37:56.113Z,15.00
2018-04-17T07:42:52.931Z,15.06
2018-04-17T07:47:49.681Z,15.07
2018-04-17T07:52:45.881Z,15.31
2018-04-17T07:57:42.029Z,15.83
2018-04-17T08:02:40.685Z,17.31
2018-04-17T08:07:39.242Z,18.40
2018-04-17T08:12:36.365Z,19.31
2018-04-17T08:17:37.510Z,20.18
2018-04-17T08:22:33.559Z,20.39
2018-04-17T08:27:35.109Z,20.97
2018-04-17T08:32:34.201Z,20.48
2018-04-17T08:37:29.285Z,20.52
2018-04-17T08:42:26.147Z,20.22
2018-04-17T08:47:25.721Z,19.86
2018-04-17T08:52:20.907Z,19.44
2018-04-17T08:57:16.241Z,19.24
2018-04-17T09:02:15.911Z,19.02
2018-04-17T09:07:10.795Z,19.40
2018-04-17T09:12:06.599Z,19.31
2018-04-17T09:17:02.117Z,18.98
2018-04-17T09:21:57.865Z,19.22
2018-04-17T09:26:54.261Z,19.19
2018-04-17T09:31:51.238Z,19.30
2018-04-17T09:36:48.165Z,19.63
2018-04-17T09:41:44.250Z,19.92
2018-04-17T09:46:40.597Z,19.74
2018-04-17T09:51:43.397Z,19.71
2018-04-17T09:56:39.905Z,20.32
2018-04-17T10:01:40.255Z,20.56
2018-04-17T10:06:39.840Z,20.52
2018-04-17T10:16:42.316Z,21.51
2018-04-17T10:21:39.418Z,21.98
2018-04-17T10:26:41.011Z,21.80
2018-04-17T10:31:36.719Z,22.07
2018-04-17T10:36:39.316Z,22.25
2018-04-17T10:41:39.829Z,22.33
2018-04-17T10:46:35.080Z,22.08
2018-04-17T10:51:34.584Z,22.17
2018-04-17T10:56:30.725Z,22.55
2018-04-17T11:01:30.677Z,22.41
2018-04-17T11:06:28.644Z,22.70
2018-04-17T11:11:29.701Z,22.84
2018-04-17T11:16:25.719Z,22.48
2018-04-17T11:21:25.899Z,22.83
2018-04-17T11:26:26.520Z,22.93
2018-04-17T11:31:27.078Z,22.91
2018-04-17T11:36:25.580Z,23.73
2018-04-17T11:41:27.701Z,23.59
2018-04-17T11:46:27.760Z,23.27
2018-04-17T11:51:27.445Z,23.41
2018-04-17T11:56:27.688Z,23.32
2018-04-17T12:01:22.713Z,23.09
2018-04-17T12:06:22.699Z,23.09
2018-04-17T12:11:21.172Z,23.05
2018-04-17T12:16:15.939Z,22.60
2018-04-17T12:21:13.946Z,21.96
2018-04-17T12:26:10.506Z,21.91
2018-04-17T12:31:06.843Z,21.89
2018-04-17T12:36:06.782Z,22.10
2018-04-17T12:41:06.727Z,22.06
2018-04-17T12:46:01.590Z,22.47
2018-04-17T12:51:02.286Z,22.66
2018-04-17T12:55:58.428Z,22.15
2018-04-17T13:00:53.826Z,22.33
2018-04-17T13:05:50.235Z,21.77
2018-04-17T13:10:45.733Z,21.73
2018-04-17T13:15:43.284Z,21.73
2018-04-17T13:20:39.412Z,21.64
2018-04-17T13:25:40.101Z,21.72
2018-04-17T13:30:39.199Z,21.75
2018-04-17T13:35:34.578Z,21.93
2018-04-17T13:40:31.619Z,21.76
2018-04-17T13:45:27.173Z,21.51
2018-04-17T13:50:23.608Z,21.57
2018-04-17T13:55:20.631Z,21.42
2018-04-17T14:00:16.114Z,21.36
2018-04-17T14:05:11.817Z,21.25
2018-04-17T14:10:10.769Z,21.48
2018-04-17T14:15:07.257Z,21.80
2018-04-17T14:20:07.151Z,21.89
2018-04-17T14:25:03.883Z,21.72
2018-04-17T14:30:00.837Z,21.55
2018-04-17T14:34:56.383Z,21.60
2018-04-17T14:39:52.718Z,21.58
2018-04-17T14:44:48.837Z,21.62
2018-04-17T14:49:48.625Z,21.77
2018-04-17T14:54:47.834Z,21.75
2018-04-17T14:59:43.995Z,21.75
2018-04-17T15:04:45.710Z,21.80
2018-04-17T15:09:40.725Z,21.93
2018-04-17T15:14:36.907Z,21.98
2018-04-17T15:19:34.175Z,21.98
2018-04-17T15:24:29.936Z,21.79
2018-04-17T15:29:29.734Z,21.75
2018-04-17T15:34:27.034Z,21.45
2018-04-17T15:39:27.632Z,21.43
2018-04-17T15:44:27.517Z,21.50
2018-04-17T15:49:26.986Z,21.60
2018-04-17T15:54:23.955Z,21.66
2018-04-17T15:59:20.493Z,21.76
2018-04-17T16:04:24.415Z,21.77
2018-04-17T16:09:25.309Z,21.82
2018-04-17T16:14:21.615Z,21.67
2018-04-17T16:19:21.240Z,21.70
2018-04-17T16:24:21.177Z,21.62
2018-04-17T16:29:22.193Z,21.57
2018-04-17T16:34:16.684Z,21.46
2018-04-17T16:39:13.489Z,21.42
2018-04-17T16:44:10.049Z,21.46
2018-04-17T16:49:07.724Z,21.39
2018-04-17T16:54:08.363Z,21.39
2018-04-17T16:59:07.275Z,21.33
2018-04-17T17:04:03.529Z,21.32
2018-04-17T17:09:04.062Z,21.32
2018-04-17T17:14:05.688Z,21.25
2018-04-17T17:19:06.389Z,21.27
2018-04-17T17:24:05.168Z,21.18
2018-04-17T17:29:01.119Z,21.03
2018-04-17T17:33:57.977Z,20.85
2018-04-17T17:38:54.022Z,20.74
2018-04-17T17:43:51.393Z,20.63
2018-04-17T17:48:47.536Z,20.51
2018-04-17T17:53:43.671Z,20.37
2018-04-17T17:58:39.643Z,20.34
2018-04-17T18:03:41.398Z,20.31
2018-04-17T18:08:36.666Z,20.18
2018-04-17T18:13:32.962Z,19.95
2018-04-17T18:18:34.826Z,19.77
2018-04-17T18:23:30.657Z,19.58
2018-04-17T18:28:31.111Z,19.31
2018-04-17T18:33:31.245Z,19.12
2018-04-17T18:38:29.572Z,18.99
2018-04-17T18:43:29.723Z,18.83
2018-04-17T18:48:28.661Z,18.78
2018-04-17T18:53:27.443Z,18.65
2018-04-17T18:58:29.356Z,18.47
2018-04-17T19:03:28.585Z,18.55
2018-04-17T19:08:24.798Z,18.38
2018-04-17T19:13:25.108Z,18.22
2018-04-17T19:18:24.771Z,18.29
2018-04-17T19:23:27.688Z,18.18
2018-04-17T19:28:28.665Z,18.04
2018-04-17T19:33:24.875Z,17.98
2018-04-17T19:38:24.725Z,17.95
2018-04-17T19:43:24.438Z,18.00
2018-04-17T19:48:29.648Z,17.90
2018-04-17T19:53:31.865Z,17.83
2018-04-17T19:58:33.012Z,17.78
2018-04-17T20:03:33.181Z,17.70
2018-04-17T20:08:30.458Z,17.63
2018-04-17T20:13:30.614Z,17.63
2018-04-17T20:18:25.418Z,17.49
2018-04-17T20:23:27.453Z,17.36
2018-04-17T20:28:27.898Z,17.26
2018-04-17T20:33:29.899Z,17.15
2018-04-17T20:38:29.222Z,17.22
2018-04-17T20:43:29.200Z,16.90
2018-04-17T20:48:25.120Z,16.84
2018-04-17T20:53:23.382Z,16.72
2018-04-17T20:58:19.078Z,16.68
2018-04-17T21:08:20.405Z,16.54
2018-04-17T21:13:20.311Z,16.49
2018-04-17T21:18:19.658Z,16.38
2018-04-17T21:23:20.585Z,16.15
2018-04-17T21:28:19.983Z,16.12
2018-04-17T21:33:21.705Z,15.94
2018-04-17T21:38:19.900Z,16.05
2018-04-17T21:43:16.445Z,16.12
2018-04-17T21:48:17.278Z,16.08
2018-04-17T21:53:18.757Z,16.05
2018-04-17T21:58:18.288Z,16.01
2018-04-17T22:03:15.726Z,15.92
2018-04-17T22:08:14.973Z,15.83
2018-04-17T22:13:13.865Z,15.92
2018-04-17T22:18:14.957Z,16.00
2018-04-17T22:23:10.255Z,15.84
2018-04-17T22:28:12.630Z,15.82
2018-04-17T22:33:09.495Z,15.58
2018-04-17T22:38:10.974Z,15.19
2018-04-17T22:43:09.575Z,15.35
2018-04-17T22:48:10.942Z,15.36
2018-04-17T22:53:08.109Z,15.33
2018-04-17T22:58:10.399Z,15.19
2018-04-17T23:03:13.495Z,14.96
2018-04-17T23:08:12.921Z,14.84
2018-04-17T23:13:13.265Z,14.73
2018-04-17T23:18:13.196Z,14.79
2018-04-17T23:23:09.644Z,14.81
2018-04-17T23:28:08.453Z,14.82
2018-04-17T23:33:08.158Z,14.66
2018-04-17T23:38:04.828Z,14.48
2018-04-17T23:43:05.570Z,14.44
2018-04-17T23:48:01.108Z,14.33
2018-04-17T23:53:02.688Z,14.18
